Fitchburg, Wisconsin
Current Conditions -  °F | °C
As of 10:53 AM on Tuesday 27 Jan 2015 (Local Time) from KMSN Reporting Station
Haze Haze  
Wind Chill: 22°   Ceiling: 500
Heat Index: 27°   Visibility: 1mi
Dew Point: 24°   Wind: 5mph
Humidity: 89%   Direction: 50°NE
Pressure: 30.17"   Gusts: NA
Location:  43°N, 89.41°W
Report Text: KMSN 271653Z 05004KT 1SM R36/P6000FT BR OVC005 M03/M04 A3017 RMK AO2 SFC VIS 1 1/4 SLP230 T10281044
Loading
Personal Weather Stations






























Interactive Weather Map New forecast layout! Learn more

10-Day Weather Forecast

Advertisements
Track Severe Weather on mobile